(°C)
-1°
-1°
-1°
-1°
-1°
-1°
-1°
(°C)
-5°
-5°
-5°
-5°
-5°
-5°
-5°
SW
SW
SW
SW
SW
SW
WSW
(km/h)
6-14
6-14
6-13
6-12
5-12
5-11
5-10
(mm)
0
0
0
0
0
0
0
(%)
0
0
0
0
0
0
0

Elevazione del sole

/ -42°
sun-icon
UV 0
07:59
18:02
Luna piena (177°)
18:14
07:14

METAR per 57.92°N 56.02°E (USPP)

Ora Condizioni Temperatura/
Punto di rugiada
Vento Visibilità Tempo Nuvole Pressione Cambiamento Grezzo
VFR -1°C / -4°C 230º 8kt >10km - Clouds and Visibility OK 1008 No Significant change. Runway 21: Wet or puddles, 1-10% contamination with 1mm, friction coefficient 0.50. USPP 191900Z 23004MPS CAVOK M01/M04 Q1008 R21/210150 NOSIG RMK QFE746
VFR -2°C / -4°C 230º 6kt >10km - Broken Clouds 4800ft 1008 No Significant change. Runway 21: Wet or puddles, 1-10% contamination with 1mm, friction coefficient 0.50. USPP 191830Z 23003MPS 9999 BKN048 M02/M04 Q1008 R21/210150 NOSIG RMK QFE745
VFR -2°C / -4°C 230º 8kt >10km - Broken Clouds 4700ft 1008 No Significant change. Runway 21: Wet or puddles, 1-10% contamination with 1mm, friction coefficient 0.50. USPP 191800Z 23004MPS 9999 BKN047 M02/M04 Q1008 R21/210150 NOSIG RMK QFE745
VFR -1°C / -4°C 230º 8kt >10km - Scattered Clouds 4900ft 1008 No Significant change. Runway 21: Wet or puddles, 1-10% contamination with 1mm, friction coefficient 0.50. USPP 191730Z 23004MPS 9999 SCT049 M01/M04 Q1008 R21/210150 NOSIG RMK QFE745
VFR 0°C / -4°C 230º 6kt >10km - Broken Clouds 4900ft 1008 No Significant change. Runway 21: Wet or puddles, 1-10% contamination with 1mm, friction coefficient 0.50. USPP 191700Z 23003MPS 9999 BKN049 00/M04 Q1008 R21/210150 NOSIG RMK QFE745
VFR -1°C / -4°C 230º 8kt >10km - Scattered Clouds 4800ft 1008 No Significant change. Runway 21: Wet or puddles, 1-10% contamination with 1mm, friction coefficient 0.50. USPP 191630Z 23004MPS 9999 SCT048 M01/M04 Q1008 R21/210150 NOSIG RMK QFE745
VFR 0°C / -4°C 240º 6kt >10km - Scattered Clouds 4500ft 1008 No Significant change. Runway 21: Wet or puddles, 1-10% contamination with 1mm, friction coefficient 0.50. USPP 191600Z 24003MPS 9999 SCT045 M00/M04 Q1008 R21/210150 NOSIG RMK QFE745
VFR 1°C / -4°C 230º 4kt >10km - Scattered Clouds 4000ft 1008 No Significant change. Runway 21: Wet or puddles, 1-10% contamination with 1mm, friction coefficient 0.50. USPP 191530Z 23002MPS 9999 SCT040 01/M04 Q1008 R21/210150 NOSIG RMK QFE745
VFR 1°C / -4°C 250º 6kt >10km - Broken Clouds 4000ft 1008 No Significant change. Runway 21: Wet or puddles, 1-10% contamination with 1mm, friction coefficient 0.50. USPP 191500Z 25003MPS 9999 BKN040 01/M04 Q1008 R21/210150 NOSIG RMK QFE745
VFR 3°C / -4°C 280º 8kt >10km - Broken Clouds 3300ft 1007 No Significant change. Runway 21: Wet or puddles, 1-10% contamination with 1mm, friction coefficient 0.50. USPP 191430Z 28004MPS 9999 BKN033 03/M04 Q1007 R21/210150 NOSIG RMK QFE745
VFR 3°C / -3°C 280º 8kt >10km - Broken Clouds 3300ft 1007 No Significant change. Runway 21: Wet or puddles, 1-10% contamination with 1mm, friction coefficient 0.50. USPP 191400Z 28004MPS 9999 BKN033 03/M03 Q1007 R21/210150 NOSIG RMK QFE745
MVFR 4°C / -3°C 270º 10kt >10km - Broken Clouds 3000ft 1007 No Significant change. Runway 21: Wet or puddles, 1-10% contamination with 1mm, friction coefficient 0.50. USPP 191330Z 27005MPS 9999 BKN030 04/M03 Q1007 R21/210150 NOSIG RMK QFE744
VFR 4°C / -3°C 270º 8kt >10km - Scattered Clouds 3000ft 1006 No Significant change. Runway 21: Wet or puddles, 1-10% contamination with 1mm, friction coefficient 0.50. USPP 191300Z 27004MPS 9999 SCT030 04/M03 Q1006 R21/210150 NOSIG RMK QFE744
VFR 4°C / -2°C 280º 8kt >10km - Scattered Clouds 3000ft 1006 No Significant change. Runway 21: Wet or puddles, 1-10% contamination with 1mm, friction coefficient 0.50. USPP 191230Z 28004MPS 9999 SCT030 04/M02 Q1006 R21/210150 NOSIG RMK QFE744
VFR 4°C / -2°C 280º 8kt >10km - Scattered Clouds 2600ft 1006 No Significant change. Runway 21: Wet or puddles, 1-10% contamination with 1mm, friction coefficient 0.50. USPP 191200Z 28004MPS 9999 SCT026 04/M02 Q1006 R21/210150 NOSIG RMK QFE744
VFR 4°C / -1°C 280º 10kt >10km - Scattered Clouds 2600ft 1006 No Significant change. Runway 21: Wet or puddles, 1-10% contamination with 1mm, friction coefficient 0.50. USPP 191130Z 28005MPS 9999 SCT026 04/M01 Q1006 R21/210150 NOSIG RMK QFE743
MVFR 5°C / -1°C 270º 10kt >10km - Broken Clouds 2400ft 1005 No Significant change. Runway 21: Wet or puddles, 1-10% contamination with 1mm, friction coefficient 0.50. USPP 191100Z 27005MPS 9999 BKN024 05/M01 Q1005 R21/210150 NOSIG RMK QFE743
MVFR 5°C / -1°C 260º 10kt >10km - Broken Clouds 2700ft 1005 No Significant change. Runway 21: Wet or puddles, 1-10% contamination with 1mm, friction coefficient 0.50. USPP 191030Z 26005MPS 9999 BKN027 05/M01 Q1005 R21/210150 NOSIG RMK QFE743
MVFR 5°C / 0°C 270º 10kt >10km - Broken Clouds 2300ft 1005 Temporary: 30005G13MPS Broken Clouds 1100ft. RMK QFE743 . Runway 21: Wet or puddles, 51-100% contamination with 1mm, friction coefficient 0.50. USPP 191000Z 27005MPS 9999 BKN023 05/M00 Q1005 R21/290150 TEMPO 30005G13MPS BKN011 RMK QFE743
MVFR 5°C / 0°C 290º 10kt >10km - Broken Clouds 2000ft 1005 Temporary: 30005G13MPS Broken Clouds 1100ft. RMK QFE743 . Runway 21: Wet or puddles, 51-100% contamination with 1mm, friction coefficient 0.50. USPP 190930Z 29005MPS 9999 BKN020 05/00 Q1005 R21/290150 TEMPO 30005G13MPS BKN011 RMK QFE743
MVFR 6°C / 1°C 270º 12kt >10km - Broken Clouds 2100ft 1004 Temporary: 30005G13MPS Broken Clouds 1100ft. RMK QFE743 . Runway 21: Wet or puddles, 51-100% contamination with 1mm, friction coefficient 0.50. USPP 190900Z 27006MPS 9999 BKN021 06/01 Q1004 R21/290150 TEMPO 30005G13MPS BKN011 RMK QFE743
MVFR 5°C / 1°C 280º 10kt >10km - Broken Clouds 2000ft 1004 Temporary: 30005G13MPS Broken Clouds 1100ft. RMK QFE742 . Runway 21: Wet or puddles, 51-100% contamination with 1mm, friction coefficient 0.50. USPP 190830Z 28005MPS 9999 BKN020 05/01 Q1004 R21/290150 TEMPO 30005G13MPS BKN011 RMK QFE742
VFR 5°C / 1°C 280º 12kt >10km - Broken Clouds 3300ft 1004 Temporary: 30005G13MPS Broken Clouds 1100ft. RMK QFE742 . Runway 21: Wet or puddles, 51-100% contamination with 1mm, friction coefficient 0.50. USPP 190800Z 28006MPS 9999 BKN033 05/01 Q1004 R21/290150 TEMPO 30005G13MPS BKN011 RMK QFE742
MVFR 5°C / 2°C 290º 12kt >10km - Broken Clouds 1400ft 1003 Temporary: 30005G13MPS Broken Clouds 1100ft. RMK QFE742 . Runway 21: Wet or puddles, 51-100% contamination with 1mm, friction coefficient 0.50. USPP 190730Z 29006MPS 9999 BKN014 05/02 Q1003 R21/290150 TEMPO 30005G13MPS BKN011 RMK QFE742

VFR

-1°C / -4°C

[Più]
Vento 230º 8kt
Visibilità >10km
Tempo -
Nuvole Clouds and Visibility OK
Pressione 1008
Cambiamento No Significant change. Runway 21: Wet or puddles, 1-10% contamination with 1mm, friction coefficient 0.50.
Grezzo USPP 191900Z 23004MPS CAVOK M01/M04 Q1008 R21/210150 NOSIG RMK QFE746

VFR

-2°C / -4°C

[Più]
Vento 230º 6kt
Visibilità >10km
Tempo -
Nuvole Broken Clouds 4800ft
Pressione 1008
Cambiamento No Significant change. Runway 21: Wet or puddles, 1-10% contamination with 1mm, friction coefficient 0.50.
Grezzo USPP 191830Z 23003MPS 9999 BKN048 M02/M04 Q1008 R21/210150 NOSIG RMK QFE745

VFR

-2°C / -4°C

[Più]
Vento 230º 8kt
Visibilità >10km
Tempo -
Nuvole Broken Clouds 4700ft
Pressione 1008
Cambiamento No Significant change. Runway 21: Wet or puddles, 1-10% contamination with 1mm, friction coefficient 0.50.
Grezzo USPP 191800Z 23004MPS 9999 BKN047 M02/M04 Q1008 R21/210150 NOSIG RMK QFE745

VFR

-1°C / -4°C

[Più]
Vento 230º 8kt
Visibilità >10km
Tempo -
Nuvole Scattered Clouds 4900ft
Pressione 1008
Cambiamento No Significant change. Runway 21: Wet or puddles, 1-10% contamination with 1mm, friction coefficient 0.50.
Grezzo USPP 191730Z 23004MPS 9999 SCT049 M01/M04 Q1008 R21/210150 NOSIG RMK QFE745

VFR

0°C / -4°C

[Più]
Vento 230º 6kt
Visibilità >10km
Tempo -
Nuvole Broken Clouds 4900ft
Pressione 1008
Cambiamento No Significant change. Runway 21: Wet or puddles, 1-10% contamination with 1mm, friction coefficient 0.50.
Grezzo USPP 191700Z 23003MPS 9999 BKN049 00/M04 Q1008 R21/210150 NOSIG RMK QFE745

VFR

-1°C / -4°C

[Più]
Vento 230º 8kt
Visibilità >10km
Tempo -
Nuvole Scattered Clouds 4800ft
Pressione 1008
Cambiamento No Significant change. Runway 21: Wet or puddles, 1-10% contamination with 1mm, friction coefficient 0.50.
Grezzo USPP 191630Z 23004MPS 9999 SCT048 M01/M04 Q1008 R21/210150 NOSIG RMK QFE745

VFR

0°C / -4°C

[Più]
Vento 240º 6kt
Visibilità >10km
Tempo -
Nuvole Scattered Clouds 4500ft
Pressione 1008
Cambiamento No Significant change. Runway 21: Wet or puddles, 1-10% contamination with 1mm, friction coefficient 0.50.
Grezzo USPP 191600Z 24003MPS 9999 SCT045 M00/M04 Q1008 R21/210150 NOSIG RMK QFE745

VFR

1°C / -4°C

[Più]
Vento 230º 4kt
Visibilità >10km
Tempo -
Nuvole Scattered Clouds 4000ft
Pressione 1008
Cambiamento No Significant change. Runway 21: Wet or puddles, 1-10% contamination with 1mm, friction coefficient 0.50.
Grezzo USPP 191530Z 23002MPS 9999 SCT040 01/M04 Q1008 R21/210150 NOSIG RMK QFE745

VFR

1°C / -4°C

[Più]
Vento 250º 6kt
Visibilità >10km
Tempo -
Nuvole Broken Clouds 4000ft
Pressione 1008
Cambiamento No Significant change. Runway 21: Wet or puddles, 1-10% contamination with 1mm, friction coefficient 0.50.
Grezzo USPP 191500Z 25003MPS 9999 BKN040 01/M04 Q1008 R21/210150 NOSIG RMK QFE745

VFR

3°C / -4°C

[Più]
Vento 280º 8kt
Visibilità >10km
Tempo -
Nuvole Broken Clouds 3300ft
Pressione 1007
Cambiamento No Significant change. Runway 21: Wet or puddles, 1-10% contamination with 1mm, friction coefficient 0.50.
Grezzo USPP 191430Z 28004MPS 9999 BKN033 03/M04 Q1007 R21/210150 NOSIG RMK QFE745

VFR

3°C / -3°C

[Più]
Vento 280º 8kt
Visibilità >10km
Tempo -
Nuvole Broken Clouds 3300ft
Pressione 1007
Cambiamento No Significant change. Runway 21: Wet or puddles, 1-10% contamination with 1mm, friction coefficient 0.50.
Grezzo USPP 191400Z 28004MPS 9999 BKN033 03/M03 Q1007 R21/210150 NOSIG RMK QFE745

MVFR

4°C / -3°C

[Più]
Vento 270º 10kt
Visibilità >10km
Tempo -
Nuvole Broken Clouds 3000ft
Pressione 1007
Cambiamento No Significant change. Runway 21: Wet or puddles, 1-10% contamination with 1mm, friction coefficient 0.50.
Grezzo USPP 191330Z 27005MPS 9999 BKN030 04/M03 Q1007 R21/210150 NOSIG RMK QFE744

VFR

4°C / -3°C

[Più]
Vento 270º 8kt
Visibilità >10km
Tempo -
Nuvole Scattered Clouds 3000ft
Pressione 1006
Cambiamento No Significant change. Runway 21: Wet or puddles, 1-10% contamination with 1mm, friction coefficient 0.50.
Grezzo USPP 191300Z 27004MPS 9999 SCT030 04/M03 Q1006 R21/210150 NOSIG RMK QFE744

VFR

4°C / -2°C

[Più]
Vento 280º 8kt
Visibilità >10km
Tempo -
Nuvole Scattered Clouds 3000ft
Pressione 1006
Cambiamento No Significant change. Runway 21: Wet or puddles, 1-10% contamination with 1mm, friction coefficient 0.50.
Grezzo USPP 191230Z 28004MPS 9999 SCT030 04/M02 Q1006 R21/210150 NOSIG RMK QFE744

VFR

4°C / -2°C

[Più]
Vento 280º 8kt
Visibilità >10km
Tempo -
Nuvole Scattered Clouds 2600ft
Pressione 1006
Cambiamento No Significant change. Runway 21: Wet or puddles, 1-10% contamination with 1mm, friction coefficient 0.50.
Grezzo USPP 191200Z 28004MPS 9999 SCT026 04/M02 Q1006 R21/210150 NOSIG RMK QFE744

VFR

4°C / -1°C

[Più]
Vento 280º 10kt
Visibilità >10km
Tempo -
Nuvole Scattered Clouds 2600ft
Pressione 1006
Cambiamento No Significant change. Runway 21: Wet or puddles, 1-10% contamination with 1mm, friction coefficient 0.50.
Grezzo USPP 191130Z 28005MPS 9999 SCT026 04/M01 Q1006 R21/210150 NOSIG RMK QFE743

MVFR

5°C / -1°C

[Più]
Vento 270º 10kt
Visibilità >10km
Tempo -
Nuvole Broken Clouds 2400ft
Pressione 1005
Cambiamento No Significant change. Runway 21: Wet or puddles, 1-10% contamination with 1mm, friction coefficient 0.50.
Grezzo USPP 191100Z 27005MPS 9999 BKN024 05/M01 Q1005 R21/210150 NOSIG RMK QFE743

MVFR

5°C / -1°C

[Più]
Vento 260º 10kt
Visibilità >10km
Tempo -
Nuvole Broken Clouds 2700ft
Pressione 1005
Cambiamento No Significant change. Runway 21: Wet or puddles, 1-10% contamination with 1mm, friction coefficient 0.50.
Grezzo USPP 191030Z 26005MPS 9999 BKN027 05/M01 Q1005 R21/210150 NOSIG RMK QFE743

MVFR

5°C / 0°C

[Più]
Vento 270º 10kt
Visibilità >10km
Tempo -
Nuvole Broken Clouds 2300ft
Pressione 1005
Cambiamento Temporary: 30005G13MPS Broken Clouds 1100ft. RMK QFE743 . Runway 21: Wet or puddles, 51-100% contamination with 1mm, friction coefficient 0.50.
Grezzo USPP 191000Z 27005MPS 9999 BKN023 05/M00 Q1005 R21/290150 TEMPO 30005G13MPS BKN011 RMK QFE743

MVFR

5°C / 0°C

[Più]
Vento 290º 10kt
Visibilità >10km
Tempo -
Nuvole Broken Clouds 2000ft
Pressione 1005
Cambiamento Temporary: 30005G13MPS Broken Clouds 1100ft. RMK QFE743 . Runway 21: Wet or puddles, 51-100% contamination with 1mm, friction coefficient 0.50.
Grezzo USPP 190930Z 29005MPS 9999 BKN020 05/00 Q1005 R21/290150 TEMPO 30005G13MPS BKN011 RMK QFE743

MVFR

6°C / 1°C

[Più]
Vento 270º 12kt
Visibilità >10km
Tempo -
Nuvole Broken Clouds 2100ft
Pressione 1004
Cambiamento Temporary: 30005G13MPS Broken Clouds 1100ft. RMK QFE743 . Runway 21: Wet or puddles, 51-100% contamination with 1mm, friction coefficient 0.50.
Grezzo USPP 190900Z 27006MPS 9999 BKN021 06/01 Q1004 R21/290150 TEMPO 30005G13MPS BKN011 RMK QFE743

MVFR

5°C / 1°C

[Più]
Vento 280º 10kt
Visibilità >10km
Tempo -
Nuvole Broken Clouds 2000ft
Pressione 1004
Cambiamento Temporary: 30005G13MPS Broken Clouds 1100ft. RMK QFE742 . Runway 21: Wet or puddles, 51-100% contamination with 1mm, friction coefficient 0.50.
Grezzo USPP 190830Z 28005MPS 9999 BKN020 05/01 Q1004 R21/290150 TEMPO 30005G13MPS BKN011 RMK QFE742

VFR

5°C / 1°C

[Più]
Vento 280º 12kt
Visibilità >10km
Tempo -
Nuvole Broken Clouds 3300ft
Pressione 1004
Cambiamento Temporary: 30005G13MPS Broken Clouds 1100ft. RMK QFE742 . Runway 21: Wet or puddles, 51-100% contamination with 1mm, friction coefficient 0.50.
Grezzo USPP 190800Z 28006MPS 9999 BKN033 05/01 Q1004 R21/290150 TEMPO 30005G13MPS BKN011 RMK QFE742

MVFR

5°C / 2°C

[Più]
Vento 290º 12kt
Visibilità >10km
Tempo -
Nuvole Broken Clouds 1400ft
Pressione 1003
Cambiamento Temporary: 30005G13MPS Broken Clouds 1100ft. RMK QFE742 . Runway 21: Wet or puddles, 51-100% contamination with 1mm, friction coefficient 0.50.
Grezzo USPP 190730Z 29006MPS 9999 BKN014 05/02 Q1003 R21/290150 TEMPO 30005G13MPS BKN011 RMK QFE742

TAF per 57.92°N 56.02°E (USPP)

From till


From till Wind 250º 6kt. Gust 16kt. Visibility 6000m. Light Snow . Broken Clouds 2000ft.
Becoming from till Wind 320º 6kt. Gust 19kt. Visibility 6000m. Light Snow . Broken Clouds 2000ft.
Becoming from till Wind 320º 6kt. Gust 19kt. Visibility 10km or more. Light Showers Rain Light Showers Snow . Broken Clouds 1600ft.

Grezzo: TAF USPP 191656Z 1918/2018 25003G08MPS 6000 -SN BKN020 BECMG 2003/2004 32003G10MPS BECMG 2004/2005 9999 -SHRASN BKN016CB

Tempo in atto per 57.92°N 56.02°E: immagine satellitare e pioggia

Il segnaposto è situato a 57.92°N 56.02°E. [Più]

L'immagine satellitare in tempo reale combina la luce visibile durante il giorno con la radiazione infrarossa durante la notte. Di notte l'immagine non è scura poiché i raggi infrarossi possono rilevare differenze di temperatura. Purtroppo, le nuvole basse e la nebbia sono difficili da distinguere dalla temperatura del suolo e possono pertanto essere quasi invisibili durante la notte. Le immagini satellitari Meteosat per l'Europa vengono aggiornate in tempo reale ogni 5 minuti. Le immagini GOES-16 / GOES-17 (Nord e Sud America) e Himawari (Asia) vengono aggiornate ogni 10 minuti.

Copyright 2021 EUMETSAT / meteoblue. / Copyright 2021 meteoblue

Radar e nowcasting per 57.92°N 56.02°E

Pioggerella
Lieve
Moderato
Forte
Molto forte
Grandine

Il segnaposto è situato a 57.92°N 56.02°E. Questa animazione mostra il radar delle precipitazioni per l'ultima ora, nonché una previsione 1h. Drizzle or light snow fall might be invisible for the radar. Precipitation intensity is colour coded, ranging from light blue to orange.